createdAt,value
2023-01-20T00:01:26.963Z,6.03
2023-01-20T00:03:55.706Z,7.05
2023-01-20T00:06:24.102Z,6.70
2023-01-20T00:08:51.921Z,6.50
2023-01-20T00:11:19.396Z,6.97
2023-01-20T00:13:46.238Z,6.30
2023-01-20T00:16:13.696Z,7.45
2023-01-20T00:18:41.116Z,6.40
2023-01-20T00:21:11.032Z,7.85
2023-01-20T00:23:38.710Z,6.90
2023-01-20T00:26:10.235Z,6.55
2023-01-20T00:28:36.935Z,6.47
2023-01-20T00:31:30.741Z,6.22
2023-01-20T00:34:01.036Z,6.38
2023-01-20T00:36:31.380Z,7.97
2023-01-20T00:38:58.617Z,7.38
2023-01-20T00:41:25.241Z,7.00
2023-01-20T00:43:51.881Z,7.25
2023-01-20T00:46:18.751Z,7.50
2023-01-20T00:48:45.432Z,6.82
2023-01-20T00:51:12.771Z,7.28
2023-01-20T00:53:39.614Z,7.93
2023-01-20T00:56:07.170Z,8.65
2023-01-20T00:58:34.096Z,7.75
2023-01-20T01:01:01.443Z,8.05
2023-01-20T01:03:28.672Z,8.60
2023-01-20T01:06:04.954Z,9.20
2023-01-20T01:08:31.566Z,8.38
2023-01-20T01:10:58.225Z,8.15
2023-01-20T01:13:24.871Z,6.95
2023-01-20T01:15:51.555Z,7.38
2023-01-20T01:18:18.251Z,6.88
2023-01-20T01:20:45.095Z,6.60
2023-01-20T01:23:12.627Z,6.60
2023-01-20T01:25:39.370Z,6.22
2023-01-20T01:28:06.029Z,5.07
2023-01-20T01:30:32.876Z,6.28
2023-01-20T01:32:59.530Z,5.88
2023-01-20T01:35:26.146Z,6.15
2023-01-20T01:37:52.791Z,6.35
2023-01-20T01:40:19.493Z,5.80
2023-01-20T01:42:46.107Z,5.53
2023-01-20T01:45:24.823Z,5.90
2023-01-20T01:48:09.924Z,5.38
2023-01-20T01:50:58.621Z,5.13
2023-01-20T01:53:27.563Z,5.15
2023-01-20T01:55:58.623Z,6.78
2023-01-20T01:58:30.783Z,6.95
2023-01-20T02:00:57.489Z,6.07
2023-01-20T02:03:27.188Z,4.90
2023-01-20T02:05:55.037Z,6.20
2023-01-20T02:08:21.809Z,5.30
2023-01-20T02:10:48.450Z,5.85
2023-01-20T02:13:15.210Z,5.82
2023-01-20T02:15:52.582Z,5.25
2023-01-20T02:19:20.643Z,5.28
2023-01-20T02:22:30.321Z,5.32
2023-01-20T02:26:04.370Z,5.78
2023-01-20T02:29:02.485Z,5.85
2023-01-20T03:00:40.335Z,4.43
2023-01-20T03:03:11.909Z,4.82
2023-01-20T03:05:45.852Z,4.90
2023-01-20T03:08:16.093Z,4.70
2023-01-20T03:10:43.078Z,5.38
2023-01-20T03:13:22.236Z,6.10
2023-01-20T03:16:17.585Z,5.50
2023-01-20T03:18:44.893Z,4.90
2023-01-20T03:21:13.117Z,5.50
2023-01-20T03:23:45.438Z,5.78
2023-01-20T03:26:14.605Z,5.78
2023-01-20T03:28:45.734Z,5.47
2023-01-20T03:31:40.993Z,5.40
2023-01-20T03:34:17.119Z,5.80
2023-01-20T03:36:45.806Z,5.55
2023-01-20T03:39:13.017Z,6.00
2023-01-20T03:42:21.327Z,999.90
2023-01-20T03:45:24.414Z,999.47
2023-01-20T03:50:39.766Z,611.78
2023-01-20T03:53:31.961Z,430.42
2023-01-20T03:56:12.537Z,359.45
2023-01-20T03:58:43.586Z,477.85
2023-01-20T04:01:17.814Z,473.60
2023-01-20T04:03:47.592Z,325.70
2023-01-20T04:06:16.337Z,162.85
2023-01-20T04:08:48.232Z,150.13
2023-01-20T04:11:15.012Z,199.02
2023-01-20T04:13:41.680Z,179.98
2023-01-20T04:16:17.563Z,286.90
2023-01-20T04:18:48.797Z,153.07
2023-01-20T04:21:28.588Z,74.95
2023-01-20T04:24:07.693Z,44.22
2023-01-20T04:26:34.376Z,14.18
2023-01-20T04:29:09.783Z,15.48
2023-01-20T04:31:38.241Z,12.93
2023-01-20T04:34:05.431Z,12.60
2023-01-20T04:36:32.102Z,11.05
2023-01-20T04:38:58.798Z,11.07
2023-01-20T04:41:25.481Z,10.57
2023-01-20T04:43:52.126Z,10.65
2023-01-20T04:46:19.046Z,10.25
2023-01-20T04:48:46.330Z,11.88
2023-01-20T04:51:13.760Z,12.63
2023-01-20T04:53:40.944Z,12.18
2023-01-20T04:56:15.287Z,9.77
2023-01-20T04:58:42.721Z,7.60
2023-01-20T05:01:09.691Z,7.35
2023-01-20T05:03:37.131Z,7.00
2023-01-20T05:06:04.041Z,7.90
2023-01-20T05:08:30.674Z,7.05
2023-01-20T05:10:57.350Z,6.57
2023-01-20T05:13:24.050Z,5.88
2023-01-20T05:15:50.652Z,5.68
2023-01-20T05:18:17.271Z,5.93
2023-01-20T05:20:48.534Z,5.30
2023-01-20T05:23:16.399Z,5.10
2023-01-20T05:25:43.240Z,4.82
2023-01-20T05:28:09.970Z,5.15
2023-01-20T05:30:36.645Z,4.40
2023-01-20T05:33:03.300Z,5.20
2023-01-20T05:35:29.970Z,4.53
2023-01-20T05:37:57.116Z,5.28
2023-01-20T05:40:23.816Z,4.80
2023-01-20T05:42:50.522Z,5.35
2023-01-20T05:45:17.479Z,6.30
2023-01-20T05:47:44.289Z,5.95
2023-01-20T05:50:12.137Z,6.20
2023-01-20T05:52:38.860Z,7.30
2023-01-20T05:55:05.950Z,6.78
2023-01-20T05:57:32.604Z,6.25
2023-01-20T05:59:59.252Z,6.10
2023-01-20T06:02:25.960Z,7.07
2023-01-20T06:04:52.620Z,7.78
2023-01-20T06:07:19.239Z,6.65
2023-01-20T06:09:45.899Z,6.20
2023-01-20T06:12:12.683Z,6.28
2023-01-20T06:14:39.327Z,6.35
2023-01-20T06:17:05.896Z,6.45
2023-01-20T06:19:32.511Z,6.55
2023-01-20T06:21:59.215Z,6.88
2023-01-20T06:24:25.852Z,8.38
2023-01-20T06:26:52.719Z,7.40
2023-01-20T06:29:19.502Z,6.90
2023-01-20T06:31:46.821Z,7.05
2023-01-20T06:34:14.129Z,7.60
2023-01-20T06:36:40.830Z,9.05
2023-01-20T06:39:07.461Z,7.00
2023-01-20T06:41:34.339Z,7.20
2023-01-20T06:44:01.095Z,8.07
2023-01-20T06:46:27.801Z,7.15
2023-01-20T06:49:00.418Z,6.97
2023-01-20T06:51:29.782Z,6.20
2023-01-20T06:53:56.908Z,5.97
2023-01-20T06:56:24.054Z,6.18
2023-01-20T06:58:51.212Z,5.97
2023-01-20T07:01:23.131Z,6.00
2023-01-20T07:03:50.200Z,6.50
2023-01-20T07:06:38.550Z,6.03
2023-01-20T07:09:10.552Z,5.50
2023-01-20T07:11:37.331Z,4.25
2023-01-20T07:14:05.467Z,4.97
2023-01-20T07:16:32.809Z,5.15
2023-01-20T07:18:59.825Z,4.97
2023-01-20T07:21:26.801Z,5.15
2023-01-20T07:23:53.916Z,4.72
2023-01-20T07:26:23.140Z,6.28
2023-01-20T07:28:49.936Z,5.63
2023-01-20T07:31:22.565Z,5.38
2023-01-20T07:33:50.437Z,4.97
2023-01-20T07:36:18.069Z,5.40
2023-01-20T07:38:48.663Z,5.40
2023-01-20T07:41:19.778Z,6.00
2023-01-20T07:43:48.717Z,6.10
2023-01-20T07:46:15.377Z,6.50
2023-01-20T07:48:42.459Z,6.03
2023-01-20T07:51:11.511Z,7.88
2023-01-20T07:53:46.673Z,19.80
2023-01-20T07:56:25.162Z,8.75
2023-01-20T07:58:53.668Z,8.73
2023-01-20T08:01:31.394Z,8.10
2023-01-20T08:04:02.683Z,9.55
2023-01-20T08:06:29.852Z,11.10
2023-01-20T08:09:00.595Z,9.65
2023-01-20T08:11:27.376Z,9.48
2023-01-20T08:13:54.247Z,9.98
2023-01-20T08:16:21.188Z,10.55
2023-01-20T08:18:48.014Z,10.57
2023-01-20T08:21:26.119Z,12.55
2023-01-20T08:23:55.434Z,18.05
2023-01-20T08:26:24.607Z,56.08
2023-01-20T08:28:52.129Z,63.55
2023-01-20T08:31:21.690Z,17.88
2023-01-20T08:33:49.000Z,16.65
2023-01-20T08:36:19.256Z,17.83
2023-01-20T08:38:47.413Z,14.02
2023-01-20T08:41:17.666Z,28.92
2023-01-20T08:43:44.599Z,23.52
2023-01-20T08:46:14.074Z,15.77
2023-01-20T08:48:42.521Z,15.88
2023-01-20T08:51:15.898Z,15.07
2023-01-20T08:53:43.179Z,15.20
2023-01-20T08:56:11.209Z,16.17
2023-01-20T08:58:38.127Z,15.70
2023-01-20T09:01:12.714Z,16.23
2023-01-20T09:03:40.107Z,15.75
2023-01-20T09:06:10.827Z,15.23
2023-01-20T09:08:38.303Z,15.93
2023-01-20T09:11:10.518Z,17.52
2023-01-20T09:13:37.763Z,16.58
2023-01-20T09:16:05.029Z,17.60
2023-01-20T09:18:32.613Z,17.73
2023-01-20T09:21:00.090Z,18.58
2023-01-20T09:23:26.852Z,18.65
2023-01-20T09:25:53.666Z,19.65
2023-01-20T09:28:20.352Z,18.63
2023-01-20T09:30:47.032Z,20.02
2023-01-20T09:33:13.850Z,19.77
2023-01-20T09:35:40.652Z,18.05
2023-01-20T09:38:25.953Z,19.63
2023-01-20T09:41:35.919Z,19.80
2023-01-20T09:44:42.333Z,21.08
2023-01-20T09:47:38.741Z,23.83
2023-01-20T09:50:43.976Z,19.95
2023-01-20T09:53:39.495Z,20.77
2023-01-20T09:56:14.116Z,18.42
2023-01-20T09:59:06.967Z,19.80
2023-01-20T10:04:38.274Z,18.63
2023-01-20T10:07:16.575Z,19.33
2023-01-20T10:10:03.260Z,18.50
2023-01-20T10:12:39.090Z,18.52
2023-01-20T10:15:12.497Z,19.67
2023-01-20T10:18:02.427Z,19.75
2023-01-20T10:20:40.694Z,20.38
2023-01-20T10:23:42.949Z,19.90
2023-01-20T10:26:30.319Z,20.23
2023-01-20T10:29:02.293Z,20.02
2023-01-20T10:31:33.468Z,21.80
2023-01-20T10:34:09.000Z,21.77
2023-01-20T10:36:36.136Z,22.60
2023-01-20T10:39:10.945Z,21.75
2023-01-20T10:41:51.673Z,21.08
2023-01-20T10:44:18.419Z,22.25
2023-01-20T10:47:41.231Z,22.10
2023-01-20T10:50:31.843Z,19.77
2023-01-20T10:53:25.051Z,19.55
2023-01-20T10:56:02.210Z,19.17
2023-01-20T10:58:37.925Z,20.40
2023-01-20T11:01:09.286Z,20.00
2023-01-20T11:03:40.773Z,20.75
2023-01-20T11:06:07.608Z,21.65
2023-01-20T11:08:34.229Z,22.75
2023-01-20T11:11:15.020Z,20.65
2023-01-20T11:13:41.617Z,24.33
2023-01-20T11:16:18.943Z,20.67
2023-01-20T11:19:06.200Z,20.52
2023-01-20T11:21:36.663Z,21.20
2023-01-20T11:24:35.565Z,21.55
2023-01-20T11:27:04.892Z,22.25
2023-01-20T11:29:38.457Z,20.98
2023-01-20T11:32:05.261Z,22.38
2023-01-20T11:34:34.907Z,21.50
2023-01-20T11:37:25.543Z,23.13
2023-01-20T11:40:11.980Z,23.25
2023-01-20T11:42:44.976Z,23.88
2023-01-20T11:45:34.748Z,23.77
2023-01-20T11:48:33.628Z,21.40
2023-01-20T11:51:01.611Z,22.55
2023-01-20T11:53:33.253Z,22.35
2023-01-20T11:56:19.898Z,24.07
2023-01-20T11:58:56.071Z,23.15
2023-01-20T12:01:28.489Z,22.58
2023-01-20T12:04:38.050Z,21.38
2023-01-20T12:07:12.571Z,22.05
2023-01-20T12:09:46.831Z,21.17
2023-01-20T12:12:39.972Z,23.80
2023-01-20T12:15:19.451Z,22.40
2023-01-20T12:18:10.500Z,20.13
2023-01-20T12:20:54.782Z,23.23
2023-01-20T12:23:46.191Z,21.00
2023-01-20T12:26:15.009Z,22.50
2023-01-20T12:29:02.377Z,24.23
2023-01-20T12:31:31.262Z,23.30
2023-01-20T12:34:06.922Z,21.77
2023-01-20T12:37:05.656Z,22.05
2023-01-20T12:40:23.354Z,22.08
2023-01-20T12:43:05.958Z,23.10
2023-01-20T12:46:04.851Z,21.65
2023-01-20T12:48:59.875Z,19.88
2023-01-20T12:51:40.824Z,22.33
2023-01-20T12:54:48.989Z,21.30
2023-01-20T12:57:52.017Z,22.40
2023-01-20T13:01:07.561Z,22.20
2023-01-20T13:04:15.746Z,20.60
2023-01-20T13:07:31.012Z,23.27
2023-01-20T13:10:24.303Z,21.92
2023-01-20T13:13:33.347Z,22.25
2023-01-20T13:16:36.142Z,20.08
2023-01-20T13:19:29.531Z,21.75
2023-01-20T13:22:07.899Z,20.58
2023-01-20T13:24:35.559Z,21.38
2023-01-20T13:27:02.949Z,27.67
2023-01-20T13:29:55.205Z,21.90
2023-01-20T13:32:49.131Z,22.83
2023-01-20T13:35:44.434Z,22.48
2023-01-20T13:38:33.161Z,23.40
2023-01-20T13:41:03.503Z,21.67
2023-01-20T13:44:03.560Z,24.35
2023-01-20T13:46:35.948Z,23.33
2023-01-20T13:49:23.247Z,22.52
2023-01-20T13:51:50.429Z,23.40
2023-01-20T13:54:44.717Z,22.17
2023-01-20T13:57:40.595Z,20.77
2023-01-20T14:00:12.980Z,20.23
2023-01-20T14:02:39.861Z,23.00
2023-01-20T14:05:20.321Z,21.30
2023-01-20T14:07:46.946Z,22.45
2023-01-20T14:10:14.281Z,22.38
2023-01-20T14:12:41.690Z,21.85
2023-01-20T14:15:23.480Z,21.27
2023-01-20T14:17:55.210Z,21.73
2023-01-20T14:20:26.516Z,21.58
2023-01-20T14:22:53.205Z,21.98
2023-01-20T14:25:26.159Z,21.00
2023-01-20T14:27:53.052Z,21.38
2023-01-20T14:30:25.746Z,21.50
2023-01-20T14:32:53.380Z,22.27
2023-01-20T14:35:28.957Z,24.77
2023-01-20T14:37:55.737Z,23.25
2023-01-20T14:40:26.235Z,23.58
2023-01-20T14:43:06.260Z,24.65
2023-01-20T14:45:33.627Z,25.70
2023-01-20T14:48:02.849Z,26.58
2023-01-20T14:50:30.020Z,27.35
2023-01-20T14:52:56.695Z,25.38
2023-01-20T14:55:32.146Z,26.15
2023-01-20T14:57:59.231Z,27.05
2023-01-20T15:00:31.665Z,25.98
2023-01-20T15:03:15.829Z,25.40
2023-01-20T15:05:54.941Z,26.65
2023-01-20T15:08:26.351Z,24.63
2023-01-20T15:11:32.600Z,26.07
2023-01-20T15:14:01.714Z,26.67
2023-01-20T15:16:38.788Z,24.23
2023-01-20T15:19:18.392Z,24.48
2023-01-20T15:21:53.385Z,24.77
2023-01-20T15:24:23.048Z,22.63
2023-01-20T15:26:52.620Z,23.90
2023-01-20T15:29:58.548Z,25.17
2023-01-20T15:32:26.312Z,24.05
2023-01-20T15:34:52.899Z,23.85
2023-01-20T15:37:20.113Z,24.52
2023-01-20T15:39:47.582Z,24.75
2023-01-20T15:42:15.357Z,24.65
2023-01-20T15:44:42.040Z,24.35
2023-01-20T15:47:20.611Z,22.45
2023-01-20T15:49:47.726Z,24.02
2023-01-20T15:52:14.364Z,23.08
2023-01-20T15:54:40.992Z,22.95
2023-01-20T15:57:16.841Z,26.45
2023-01-20T15:59:47.618Z,25.02
2023-01-20T16:02:19.629Z,24.25
2023-01-20T16:04:46.414Z,24.70
2023-01-20T16:07:15.768Z,24.80
2023-01-20T16:09:43.454Z,26.65
2023-01-20T16:12:14.755Z,27.13
2023-01-20T16:14:41.888Z,26.88
2023-01-20T16:17:21.200Z,25.83
2023-01-20T16:19:48.918Z,28.83
2023-01-20T16:22:16.327Z,27.60
2023-01-20T16:24:43.212Z,28.80
2023-01-20T16:27:22.068Z,27.85
2023-01-20T16:29:49.383Z,28.70
2023-01-20T16:32:18.189Z,30.10
2023-01-20T16:34:46.390Z,29.85
2023-01-20T16:37:14.449Z,29.10
2023-01-20T16:39:41.172Z,30.08
2023-01-20T16:42:11.562Z,28.52
2023-01-20T16:44:39.003Z,26.58
2023-01-20T16:47:06.617Z,29.25
2023-01-20T16:49:33.240Z,28.15
2023-01-20T16:52:00.109Z,31.10
2023-01-20T16:54:26.693Z,29.88
2023-01-20T16:56:53.302Z,30.65
2023-01-20T16:59:19.938Z,30.38
2023-01-20T17:01:49.778Z,29.08
2023-01-20T17:04:16.744Z,28.30
2023-01-20T17:06:43.409Z,26.20
2023-01-20T17:09:10.061Z,28.55
2023-01-20T17:11:38.759Z,26.10
2023-01-20T17:14:07.193Z,25.73
2023-01-20T17:16:34.404Z,24.67
2023-01-20T17:19:01.768Z,25.65
2023-01-20T17:21:30.545Z,23.85
2023-01-20T17:24:00.391Z,24.40
2023-01-20T17:26:27.210Z,22.65
2023-01-20T17:28:55.852Z,22.75
2023-01-20T17:31:22.954Z,25.48
2023-01-20T17:33:50.586Z,27.67
2023-01-20T17:36:17.566Z,385.55
2023-01-20T17:38:44.816Z,231.93
2023-01-20T17:41:12.974Z,40.67
2023-01-20T17:43:46.473Z,33.70
2023-01-20T17:46:25.133Z,32.63
2023-01-20T17:48:51.711Z,34.15
2023-01-20T17:51:20.998Z,26.00
2023-01-20T17:53:48.443Z,26.85
2023-01-20T17:56:17.461Z,34.92
2023-01-20T17:58:45.765Z,52.90
2023-01-20T18:01:27.482Z,36.03
2023-01-20T18:03:56.527Z,30.10
2023-01-20T18:06:24.394Z,33.60
2023-01-20T18:08:56.435Z,33.95
2023-01-20T18:11:27.082Z,44.35
2023-01-20T18:13:56.119Z,40.38
2023-01-20T18:16:26.462Z,42.30
2023-01-20T18:18:58.379Z,34.40
2023-01-20T18:21:31.072Z,27.80
2023-01-20T18:23:58.687Z,28.45
2023-01-20T18:26:29.570Z,26.00
2023-01-20T18:28:58.522Z,24.17
2023-01-20T18:31:27.055Z,27.33
2023-01-20T18:33:55.825Z,25.38
2023-01-20T18:36:26.055Z,23.60
2023-01-20T18:38:58.696Z,24.33
2023-01-20T18:41:26.856Z,23.80
2023-01-20T18:43:53.763Z,25.05
2023-01-20T18:46:20.736Z,23.30
2023-01-20T18:48:48.984Z,22.63
2023-01-20T18:51:17.844Z,23.27
2023-01-20T18:53:45.748Z,25.48
2023-01-20T18:56:15.240Z,23.70
2023-01-20T18:58:47.026Z,26.25
2023-01-20T19:01:19.803Z,23.90
2023-01-20T19:03:47.632Z,22.75
2023-01-20T19:06:22.656Z,22.90
2023-01-20T19:08:49.824Z,21.75
2023-01-20T19:11:22.775Z,23.95
2023-01-20T19:13:51.702Z,23.50
2023-01-20T19:16:19.999Z,21.33
2023-01-20T19:18:51.965Z,24.25
2023-01-20T19:21:18.737Z,23.25
2023-01-20T19:23:49.902Z,21.60
2023-01-20T19:26:18.718Z,20.08
2023-01-20T19:28:47.027Z,24.35
2023-01-20T19:31:19.287Z,22.38
2023-01-20T19:33:46.312Z,27.15
2023-01-20T19:36:15.901Z,24.73
2023-01-20T19:38:43.030Z,23.23
2023-01-20T19:41:18.916Z,28.67
2023-01-20T19:43:46.222Z,24.00
2023-01-20T19:46:17.572Z,25.40
2023-01-20T19:48:44.721Z,24.90
2023-01-20T19:51:16.053Z,23.77
2023-01-20T19:53:44.235Z,25.02
2023-01-20T19:56:13.615Z,24.70
2023-01-20T19:58:41.757Z,23.73
2023-01-20T20:01:15.345Z,23.65
2023-01-20T20:03:42.568Z,23.33
2023-01-20T20:06:31.572Z,23.58
2023-01-20T20:09:16.391Z,22.98
2023-01-20T20:11:43.417Z,23.75
2023-01-20T20:14:13.996Z,22.52
2023-01-20T20:16:41.138Z,21.77
2023-01-20T20:19:09.908Z,22.50
2023-01-20T20:21:36.583Z,21.83
2023-01-20T20:24:05.375Z,24.00
2023-01-20T20:26:35.330Z,21.42
2023-01-20T20:29:03.561Z,21.77
2023-01-20T20:31:30.403Z,21.83
2023-01-20T20:33:58.978Z,22.52
2023-01-20T20:36:28.294Z,23.42
2023-01-20T20:38:55.746Z,22.88
2023-01-20T20:41:22.521Z,23.55
2023-01-20T20:43:49.140Z,20.35
2023-01-20T20:46:16.499Z,23.58
2023-01-20T20:48:43.313Z,22.25
2023-01-20T20:51:15.946Z,22.85
2023-01-20T20:53:43.591Z,20.70
2023-01-20T20:56:13.415Z,23.67
2023-01-20T20:58:55.568Z,22.13
2023-01-20T21:01:27.770Z,22.08
2023-01-20T21:03:57.471Z,22.27
2023-01-20T21:06:24.158Z,23.15
2023-01-20T21:08:50.818Z,24.45
2023-01-20T21:11:18.491Z,23.88
2023-01-20T21:13:45.166Z,25.92
2023-01-20T21:16:14.922Z,22.15
2023-01-20T21:18:41.768Z,23.27
2023-01-20T21:21:13.375Z,26.65
2023-01-20T21:23:43.261Z,24.80
2023-01-20T21:26:12.745Z,24.35
2023-01-20T21:28:39.959Z,25.40
2023-01-20T21:31:11.418Z,25.48
2023-01-20T21:33:38.939Z,24.05
2023-01-20T21:36:07.298Z,24.08
2023-01-20T21:38:34.052Z,26.40
2023-01-20T21:41:09.947Z,26.23
2023-01-20T21:43:57.125Z,24.95
2023-01-20T21:46:24.638Z,25.77
2023-01-20T21:49:10.015Z,26.70
2023-01-20T21:51:55.641Z,27.67
2023-01-20T21:54:22.359Z,26.60
2023-01-20T21:56:51.161Z,28.05
2023-01-20T21:59:18.140Z,26.65
2023-01-20T22:01:44.810Z,26.30
2023-01-20T22:04:11.454Z,26.85
2023-01-20T22:06:38.076Z,29.40
2023-01-20T22:09:04.930Z,28.02
2023-01-20T22:11:31.565Z,27.13
2023-01-20T22:13:58.432Z,29.92
2023-01-20T22:16:26.050Z,26.20
2023-01-20T22:18:53.841Z,28.45
2023-01-20T22:21:22.152Z,28.85
2023-01-20T22:23:48.952Z,28.90
2023-01-20T22:26:15.586Z,30.52
2023-01-20T22:28:42.735Z,31.73
2023-01-20T22:31:14.815Z,28.92
2023-01-20T22:33:41.464Z,29.55
2023-01-20T22:36:08.614Z,32.15
2023-01-20T22:38:35.280Z,31.77
2023-01-20T22:41:06.689Z,30.83
2023-01-20T22:43:35.070Z,31.77
2023-01-20T22:46:02.923Z,31.63
2023-01-20T22:48:34.009Z,32.92
2023-01-20T22:51:12.209Z,30.38
2023-01-20T22:53:39.535Z,29.98
2023-01-20T22:56:12.422Z,33.70
2023-01-20T22:58:39.372Z,31.02
2023-01-20T23:01:12.707Z,31.65
2023-01-20T23:03:39.548Z,29.27
2023-01-20T23:06:06.449Z,30.70
2023-01-20T23:08:33.120Z,30.50
2023-01-20T23:11:04.481Z,30.70
2023-01-20T23:13:31.279Z,31.92
2023-01-20T23:15:57.915Z,30.85
2023-01-20T23:18:25.096Z,30.70
2023-01-20T23:20:53.396Z,31.38
2023-01-20T23:23:21.666Z,30.40
2023-01-20T23:25:48.396Z,29.98
2023-01-20T23:28:15.382Z,34.20
2023-01-20T23:30:42.428Z,31.70
2023-01-20T23:33:09.962Z,31.17
2023-01-20T23:35:39.052Z,32.35
2023-01-20T23:38:06.890Z,31.83
2023-01-20T23:40:36.181Z,32.55
2023-01-20T23:43:02.933Z,30.25
2023-01-20T23:45:29.651Z,32.03
2023-01-20T23:47:56.338Z,34.08
2023-01-20T23:50:22.996Z,31.75
2023-01-20T23:52:49.619Z,31.50
2023-01-20T23:55:16.344Z,32.55
2023-01-20T23:57:42.987Z,34.65
